Terminal Aerodrome Forecast
Issued by NWS

Current Version | Previous Version | Text Only | Print | Product List | Glossary On
Versions: 1 2 3 4 5 6 7 8 9 10 11 12 13 14
000
FTUS44 KEPZ 011100
TAFTCS
TAF
KTCS 011120Z 0112/0212 29008KT P6SM SKC
     FM011700 17011KT P6SM SKC
     FM012100 24015G25KT P6SM SKC
     FM020400 29008KT P6SM SKC=

USA.gov is the U.S. government's official web portal to all federal, state and local government web resources and services.